Time;durP1;ratioP1;P1;durP2;ratioP2;P2;SDS_P1;SDS_P2;PMS_P1;PMS_P2;Temp;Humidity;BMP_temperature;BMP_pressure;BME280_temperature;BME280_humidity;BME280_pressure;Samples;Min_cycle;Max_cycle;Signal;HPM_P1;HPM_P2
2023/07/02 00:02:17;;;;;;;;;;;22.80;67.20;;;;;;5009603;28;92444;-44
2023/07/02 00:04:45;;;;;;;;;;;22.70;67.10;;;;;;5007270;28;92183;-44
2023/07/02 00:07:10;;;;;;;;;;;22.70;67.20;;;;;;5009418;28;92381;-46
2023/07/02 00:09:36;;;;;;;;;;;22.70;67.10;;;;;;5006120;28;94270;-45
2023/07/02 00:12:01;;;;;;;;;;;22.70;67.10;;;;;;5004977;28;92147;-43
2023/07/02 00:14:27;;;;;;;;;;;22.70;67.10;;;;;;5009865;28;92547;-46
2023/07/02 00:16:52;;;;;;;;;;;22.70;67.20;;;;;;5006070;28;92667;-46
2023/07/02 00:19:18;;;;;;;;;;;22.70;67.20;;;;;;5010429;28;92098;-45
2023/07/02 00:21:43;;;;;;;;;;;22.60;67.20;;;;;;5009078;28;92432;-44
2023/07/02 00:24:09;;;;;;;;;;;22.60;67.20;;;;;;5009816;28;92224;-44
2023/07/02 00:26:35;;;;;;;;;;;22.60;67.30;;;;;;5006184;28;93258;-44
2023/07/02 00:29:01;;;;;;;;;;;22.60;67.20;;;;;;5006448;28;92962;-47
2023/07/02 00:31:26;;;;;;;;;;;22.60;67.20;;;;;;5009148;28;92014;-45
2023/07/02 00:33:52;;;;;;;;;;;22.60;67.20;;;;;;5006446;28;93940;-45
2023/07/02 00:36:17;;;;;;;;;;;22.60;67.30;;;;;;5008144;28;93260;-45
2023/07/02 00:38:49;;;;;;;;;;;22.60;67.20;;;;;;5007758;28;92249;-44
2023/07/02 00:41:15;;;;;;;;;;;22.50;67.10;;;;;;5004690;28;92346;-45
2023/07/02 00:43:43;;;;;;;;;;;22.50;67.20;;;;;;5011266;28;93199;-46
2023/07/02 00:46:21;;;;;;;;;;;22.50;67.30;;;;;;5006879;28;92422;-43
2023/07/02 00:48:47;;;;;;;;;;;22.50;67.20;;;;;;5002842;28;93002;-49
2023/07/02 00:51:17;;;;;;;;;;;22.50;67.30;;;;;;5010122;28;91377;-43
2023/07/02 00:53:46;;;;;;;;;;;22.50;67.20;;;;;;5006869;28;92832;-45
2023/07/02 00:56:12;;;;;;;;;;;22.50;67.20;;;;;;5006214;28;93136;-46
2023/07/02 00:58:39;;;;;;;;;;;22.50;67.20;;;;;;5006016;28;93055;-44
2023/07/02 01:01:05;;;;;;;;;;;22.40;67.30;;;;;;5010290;28;92796;-45
2023/07/02 01:03:32;;;;;;;;;;;22.50;67.40;;;;;;5009357;28;93175;-44
2023/07/02 01:05:58;;;;;;;;;;;22.40;67.30;;;;;;5015468;28;92046;-45
2023/07/02 01:08:24;;;;;;;;;;;22.50;67.30;;;;;;5009324;28;92904;-44
2023/07/02 01:10:50;;;;;;;;;;;22.40;67.40;;;;;;5012741;28;92082;-44
2023/07/02 01:13:17;;;;;;;;;;;22.40;67.20;;;;;;5008680;28;92631;-44
2023/07/02 01:15:43;;;;;;;;;;;22.40;67.40;;;;;;5012886;28;92946;-47
2023/07/02 01:18:09;;;;;;;;;;;22.40;67.30;;;;;;5009244;28;92116;-45
2023/07/02 01:20:35;;;;;;;;;;;22.30;67.30;;;;;;5012869;28;92575;-44
2023/07/02 01:23:03;;;;;;;;;;;22.40;67.30;;;;;;5007951;28;94224;-47
2023/07/02 01:25:29;;;;;;;;;;;22.30;67.30;;;;;;5008115;28;92170;-44
2023/07/02 01:27:55;;;;;;;;;;;22.30;67.40;;;;;;5010559;28;92992;-45
2023/07/02 01:30:21;;;;;;;;;;;22.30;67.40;;;;;;5008827;28;92670;-45
2023/07/02 01:32:46;;;;;;;;;;;22.30;67.40;;;;;;5011599;28;92518;-46
2023/07/02 01:35:12;;;;;;;;;;;22.30;67.30;;;;;;5008226;28;93750;-47
2023/07/02 01:37:38;;;;;;;;;;;22.30;67.40;;;;;;5010687;28;92727;-45
2023/07/02 01:40:08;;;;;;;;;;;22.20;67.40;;;;;;5008499;28;94059;-43
2023/07/02 01:42:33;;;;;;;;;;;22.20;67.40;;;;;;5008280;28;92398;-46
2023/07/02 01:44:59;;;;;;;;;;;22.20;67.40;;;;;;5011697;28;92121;-45
2023/07/02 01:47:24;;;;;;;;;;;22.20;67.40;;;;;;5011619;28;93004;-49
2023/07/02 01:49:50;;;;;;;;;;;22.20;67.30;;;;;;5011082;28;92156;-46
2023/07/02 01:52:16;;;;;;;;;;;22.20;67.30;;;;;;5009885;28;93931;-46
2023/07/02 01:54:42;;;;;;;;;;;22.20;67.50;;;;;;5009886;28;94408;-46
2023/07/02 01:57:08;;;;;;;;;;;22.20;67.50;;;;;;5006576;28;92200;-47
2023/07/02 01:59:33;;;;;;;;;;;22.20;67.50;;;;;;5010254;28;94020;-46
2023/07/02 02:01:59;;;;;;;;;;;22.20;67.50;;;;;;5009849;28;93066;-50
2023/07/02 02:04:25;;;;;;;;;;;22.10;67.50;;;;;;5011317;28;91475;-46
2023/07/02 02:06:51;;;;;;;;;;;22.10;67.60;;;;;;5009825;28;92102;-46
2023/07/02 02:09:17;;;;;;;;;;;22.10;67.60;;;;;;5013025;28;94631;-47
2023/07/02 02:11:44;;;;;;;;;;;22.10;67.50;;;;;;5007347;28;93830;-48
2023/07/02 02:14:09;;;;;;;;;;;22.10;67.50;;;;;;5005461;28;92966;-48
2023/07/02 02:16:35;;;;;;;;;;;22.00;67.70;;;;;;5011248;28;92145;-46
2023/07/02 02:19:00;;;;;;;;;;;22.00;67.60;;;;;;5008957;28;92549;-45
2023/07/02 02:21:26;;;;;;;;;;;22.00;67.60;;;;;;5011289;28;93124;-50
2023/07/02 02:23:52;;;;;;;;;;;22.00;67.70;;;;;;5008109;28;92137;-47
2023/07/02 02:26:17;;;;;;;;;;;22.00;67.70;;;;;;5011959;28;92427;-49
2023/07/02 02:28:43;;;;;;;;;;;22.00;67.70;;;;;;5003723;28;92345;-45
2023/07/02 02:31:09;;;;;;;;;;;22.00;67.70;;;;;;5011319;28;93101;-44
2023/07/02 02:33:35;;;;;;;;;;;22.00;67.70;;;;;;5010490;28;93449;-45
2023/07/02 02:36:01;;;;;;;;;;;22.00;67.70;;;;;;5007560;28;92978;-44
2023/07/02 02:38:26;;;;;;;;;;;22.00;67.70;;;;;;5010976;28;93259;-44
2023/07/02 02:40:52;;;;;;;;;;;22.00;67.70;;;;;;5007503;28;93184;-44
2023/07/02 02:43:17;;;;;;;;;;;21.90;67.70;;;;;;5003789;28;92129;-43
2023/07/02 02:45:43;;;;;;;;;;;21.90;67.70;;;;;;5009919;28;93749;-43
2023/07/02 02:48:08;;;;;;;;;;;21.90;67.80;;;;;;5008646;28;93198;-46
2023/07/02 02:50:34;;;;;;;;;;;21.90;67.70;;;;;;5010035;28;92211;-44
2023/07/02 02:52:59;;;;;;;;;;;21.90;67.80;;;;;;5012732;28;92458;-46
2023/07/02 02:55:26;;;;;;;;;;;21.90;67.80;;;;;;5009060;28;92146;-43
2023/07/02 02:57:51;;;;;;;;;;;21.90;67.80;;;;;;5009369;28;92235;-45
2023/07/02 03:00:17;;;;;;;;;;;21.80;67.70;;;;;;5007675;28;93365;-44
2023/07/02 03:02:43;;;;;;;;;;;21.80;67.70;;;;;;5010247;28;92169;-44
2023/07/02 03:05:08;;;;;;;;;;;21.80;67.80;;;;;;5006863;28;95636;-46
2023/07/02 03:07:35;;;;;;;;;;;21.80;67.80;;;;;;5010152;28;92052;-43
2023/07/02 03:10:00;;;;;;;;;;;21.80;67.80;;;;;;5008043;28;92196;-44
2023/07/02 03:12:26;;;;;;;;;;;21.80;67.80;;;;;;5010759;28;92704;-44
2023/07/02 03:14:55;;;;;;;;;;;21.80;67.70;;;;;;5010622;28;92139;-44
2023/07/02 03:17:21;;;;;;;;;;;21.80;67.70;;;;;;5008111;28;94144;-44
2023/07/02 03:19:47;;;;;;;;;;;21.80;68.40;;;;;;5010249;28;93282;-44
2023/07/02 03:22:12;;;;;;;;;;;21.70;67.80;;;;;;5007363;28;92207;-43
2023/07/02 03:24:38;;;;;;;;;;;21.70;67.80;;;;;;5009198;28;92931;-45
2023/07/02 03:27:03;;;;;;;;;;;21.70;67.90;;;;;;5002769;28;93151;-45
2023/07/02 03:29:29;;;;;;;;;;;21.70;67.80;;;;;;5007597;28;92258;-43
2023/07/02 03:31:54;;;;;;;;;;;21.70;67.90;;;;;;5010533;28;92485;-43
2023/07/02 03:34:22;;;;;;;;;;;21.70;67.90;;;;;;5010058;28;93291;-43
2023/07/02 03:36:47;;;;;;;;;;;21.70;67.90;;;;;;5010021;28;92934;-44
2023/07/02 03:39:13;;;;;;;;;;;21.70;67.80;;;;;;5007210;28;93610;-44
2023/07/02 03:41:39;;;;;;;;;;;21.70;67.90;;;;;;5009224;28;91503;-44
2023/07/02 03:44:04;;;;;;;;;;;21.70;67.80;;;;;;5006632;28;92192;-43
2023/07/02 03:46:31;;;;;;;;;;;21.70;67.80;;;;;;5007793;28;92209;-44
2023/07/02 03:48:56;;;;;;;;;;;21.70;67.90;;;;;;5008331;28;93076;-43
2023/07/02 03:51:22;;;;;;;;;;;21.70;67.90;;;;;;5008394;28;93270;-44
2023/07/02 03:53:47;;;;;;;;;;;21.70;67.80;;;;;;5008212;28;93213;-45
2023/07/02 03:56:13;;;;;;;;;;;21.60;68.00;;;;;;5011989;28;92161;-44
2023/07/02 03:58:39;;;;;;;;;;;21.60;67.90;;;;;;5005658;28;93458;-43
2023/07/02 04:01:05;;;;;;;;;;;21.60;67.90;;;;;;5008157;28;92109;-45
2023/07/02 04:03:30;;;;;;;;;;;21.60;67.90;;;;;;5009391;28;92357;-45
2023/07/02 04:05:56;;;;;;;;;;;21.60;67.80;;;;;;5007631;28;92507;-46
2023/07/02 04:08:22;;;;;;;;;;;21.60;67.80;;;;;;5009274;28;92096;-43
2023/07/02 04:10:47;;;;;;;;;;;21.60;67.90;;;;;;5006848;28;93930;-48
2023/07/02 04:13:13;;;;;;;;;;;21.60;67.80;;;;;;5004283;28;94128;-45
2023/07/02 04:15:38;;;;;;;;;;;21.60;67.90;;;;;;5010234;28;92159;-44
2023/07/02 04:18:04;;;;;;;;;;;21.60;68.00;;;;;;5009144;28;92552;-44
2023/07/02 04:20:29;;;;;;;;;;;21.60;68.10;;;;;;5010327;28;92114;-43
2023/07/02 04:22:55;;;;;;;;;;;21.50;68.00;;;;;;5006704;28;92517;-44
2023/07/02 04:25:21;;;;;;;;;;;21.60;68.00;;;;;;5008852;28;93835;-45
2023/07/02 04:27:46;;;;;;;;;;;21.50;68.00;;;;;;5006874;28;92659;-45
2023/07/02 04:30:12;;;;;;;;;;;21.50;68.00;;;;;;5006251;28;93801;-45
2023/07/02 04:32:41;;;;;;;;;;;21.50;68.10;;;;;;5008768;28;92964;-44
2023/07/02 04:35:09;;;;;;;;;;;21.50;68.00;;;;;;5006738;28;92133;-45
2023/07/02 04:37:35;;;;;;;;;;;21.50;68.00;;;;;;5012135;28;93751;-43
2023/07/02 04:40:03;;;;;;;;;;;21.50;68.10;;;;;;5012348;28;95927;-45
2023/07/02 04:42:31;;;;;;;;;;;21.50;68.00;;;;;;5013143;28;92413;-44
2023/07/02 04:45:02;;;;;;;;;;;21.50;68.00;;;;;;5008194;28;94236;-45
2023/07/02 04:47:28;;;;;;;;;;;21.50;68.00;;;;;;5005689;28;92415;-43
2023/07/02 04:49:54;;;;;;;;;;;21.50;68.10;;;;;;5012966;28;92051;-44
2023/07/02 04:52:19;;;;;;;;;;;21.50;68.00;;;;;;5009331;28;93158;-46
2023/07/02 04:54:45;;;;;;;;;;;21.50;68.10;;;;;;5012985;28;91488;-44
2023/07/02 04:57:10;;;;;;;;;;;21.50;68.10;;;;;;5010353;28;92158;-43
2023/07/02 04:59:36;;;;;;;;;;;21.40;68.10;;;;;;5011123;28;93199;-44
2023/07/02 05:02:01;;;;;;;;;;;21.40;68.10;;;;;;5013128;28;93192;-43
2023/07/02 05:04:27;;;;;;;;;;;21.40;68.10;;;;;;5011099;28;94615;-44
2023/07/02 05:06:53;;;;;;;;;;;21.50;68.10;;;;;;5010696;28;92038;-43
2023/07/02 05:09:18;;;;;;;;;;;21.40;68.00;;;;;;5011165;28;92440;-44
2023/07/02 05:11:44;;;;;;;;;;;21.40;68.10;;;;;;5010920;28;93212;-45
2023/07/02 05:14:09;;;;;;;;;;;21.40;68.10;;;;;;5009318;28;92245;-44
2023/07/02 05:16:35;;;;;;;;;;;21.40;68.10;;;;;;5010369;28;94039;-44
2023/07/02 05:19:01;;;;;;;;;;;21.40;68.10;;;;;;5011566;28;93857;-44
2023/07/02 05:21:26;;;;;;;;;;;21.40;68.10;;;;;;5012968;28;92720;-44
2023/07/02 05:23:52;;;;;;;;;;;21.40;68.10;;;;;;5011176;28;93221;-44
2023/07/02 05:26:17;;;;;;;;;;;21.40;68.10;;;;;;5008990;28;93151;-46
2023/07/02 05:28:44;;;;;;;;;;;21.40;68.10;;;;;;5008549;28;93438;-43
2023/07/02 05:31:09;;;;;;;;;;;21.40;68.10;;;;;;5011724;28;94542;-44
2023/07/02 05:33:35;;;;;;;;;;;21.40;68.10;;;;;;5008671;28;92873;-44
2023/07/02 05:36:01;;;;;;;;;;;21.40;68.10;;;;;;5012705;28;92413;-44
2023/07/02 05:38:26;;;;;;;;;;;21.30;68.10;;;;;;5008101;28;94264;-46
2023/07/02 05:40:52;;;;;;;;;;;21.30;68.10;;;;;;5012039;28;92305;-46
2023/07/02 05:43:17;;;;;;;;;;;21.40;68.10;;;;;;5012169;28;92464;-44
2023/07/02 05:45:43;;;;;;;;;;;21.30;68.20;;;;;;5008303;28;92218;-45
2023/07/02 05:48:08;;;;;;;;;;;21.30;68.20;;;;;;5010576;28;92387;-46
2023/07/02 05:50:34;;;;;;;;;;;21.30;68.20;;;;;;5008546;28;94143;-44
2023/07/02 05:52:59;;;;;;;;;;;21.30;68.10;;;;;;5010625;28;92136;-44
2023/07/02 05:55:25;;;;;;;;;;;21.30;68.20;;;;;;5010192;28;92404;-44
2023/07/02 05:57:50;;;;;;;;;;;21.30;68.20;;;;;;5009957;28;92609;-43
2023/07/02 06:00:16;;;;;;;;;;;21.30;68.20;;;;;;5007830;28;92174;-45
2023/07/02 06:02:41;;;;;;;;;;;21.30;68.20;;;;;;5009901;28;93809;-43
2023/07/02 06:05:07;;;;;;;;;;;21.30;68.10;;;;;;5012303;28;93070;-46
2023/07/02 06:07:32;;;;;;;;;;;21.30;68.20;;;;;;5011372;28;92453;-44
2023/07/02 06:09:58;;;;;;;;;;;21.40;68.20;;;;;;5008535;28;93309;-44
2023/07/02 06:12:24;;;;;;;;;;;21.30;68.10;;;;;;5011431;28;92118;-45
2023/07/02 06:14:49;;;;;;;;;;;21.30;68.20;;;;;;5007613;28;93013;-45
2023/07/02 06:17:15;;;;;;;;;;;21.30;68.80;;;;;;5011166;28;92658;-45
2023/07/02 06:19:41;;;;;;;;;;;21.40;68.20;;;;;;5007961;28;92256;-46
2023/07/02 06:22:06;;;;;;;;;;;21.40;68.10;;;;;;5011750;28;94100;-45
2023/07/02 06:24:32;;;;;;;;;;;21.40;68.10;;;;;;5003492;28;93041;-45
2023/07/02 06:26:57;;;;;;;;;;;21.30;68.10;;;;;;5014868;28;92639;-47
2023/07/02 06:29:23;;;;;;;;;;;21.40;68.10;;;;;;5008644;28;93215;-46
2023/07/02 06:31:49;;;;;;;;;;;21.40;68.10;;;;;;5009095;28;91498;-46
2023/07/02 06:34:15;;;;;;;;;;;21.40;68.10;;;;;;5011116;28;92157;-48
2023/07/02 06:36:40;;;;;;;;;;;21.40;68.20;;;;;;5008409;28;93177;-46
2023/07/02 06:39:06;;;;;;;;;;;21.30;68.20;;;;;;5009553;28;93256;-49
2023/07/02 06:41:31;;;;;;;;;;;21.30;68.20;;;;;;5008953;28;93526;-48
2023/07/02 06:43:57;;;;;;;;;;;21.30;68.20;;;;;;5008331;28;93268;-45
2023/07/02 06:46:22;;;;;;;;;;;21.30;68.20;;;;;;5009151;28;92857;-45
2023/07/02 06:48:48;;;;;;;;;;;21.30;68.20;;;;;;5012505;28;92373;-50
2023/07/02 06:51:14;;;;;;;;;;;21.30;68.20;;;;;;5009395;28;92249;-50
2023/07/02 06:53:41;;;;;;;;;;;21.30;68.30;;;;;;5009476;28;94055;-50
2023/07/02 06:56:07;;;;;;;;;;;21.30;68.20;;;;;;5008757;28;92515;-43
2023/07/02 06:58:33;;;;;;;;;;;21.30;68.30;;;;;;5009729;28;92134;-43
2023/07/02 07:00:59;;;;;;;;;;;21.30;68.30;;;;;;5007593;28;92556;-44
2023/07/02 07:03:24;;;;;;;;;;;21.30;68.40;;;;;;5007328;28;94256;-43
2023/07/02 07:05:50;;;;;;;;;;;21.30;68.30;;;;;;5010648;28;92155;-44
2023/07/02 07:08:15;;;;;;;;;;;21.30;68.50;;;;;;5007542;28;92367;-45
2023/07/02 07:10:41;;;;;;;;;;;21.30;68.50;;;;;;5012961;28;93110;-43
2023/07/02 07:13:06;;;;;;;;;;;21.30;68.50;;;;;;5007025;28;93886;-43
2023/07/02 07:15:34;;;;;;;;;;;21.30;68.50;;;;;;5006023;28;93177;-45
2023/07/02 07:17:59;;;;;;;;;;;21.30;68.50;;;;;;5002918;28;92117;-45
2023/07/02 07:20:24;;;;;;;;;;;21.30;68.40;;;;;;5010868;28;92459;-45
2023/07/02 07:22:50;;;;;;;;;;;21.30;68.90;;;;;;5006766;28;93123;-43
2023/07/02 07:25:15;;;;;;;;;;;21.40;68.40;;;;;;5009917;28;92216;-44
2023/07/02 07:27:41;;;;;;;;;;;21.30;68.40;;;;;;5006992;28;93029;-43
2023/07/02 07:30:07;;;;;;;;;;;21.40;68.40;;;;;;5008837;28;92953;-44
2023/07/02 07:32:32;;;;;;;;;;;21.40;68.30;;;;;;5009165;28;93552;-45
2023/07/02 07:34:58;;;;;;;;;;;21.40;68.30;;;;;;5007545;28;92370;-43
2023/07/02 07:37:25;;;;;;;;;;;21.40;68.30;;;;;;5008657;28;92112;-44
2023/07/02 07:39:50;;;;;;;;;;;21.40;68.30;;;;;;5007891;28;92295;-45
2023/07/02 07:42:16;;;;;;;;;;;21.40;68.30;;;;;;5007682;28;93299;-43
2023/07/02 07:44:42;;;;;;;;;;;21.40;68.30;;;;;;5006924;28;91679;-43
2023/07/02 07:47:08;;;;;;;;;;;21.40;68.30;;;;;;5008278;28;92203;-44
2023/07/02 07:49:33;;;;;;;;;;;21.40;68.30;;;;;;5008331;28;93402;-45
2023/07/02 07:51:59;;;;;;;;;;;21.40;68.30;;;;;;5010483;28;93068;-44
2023/07/02 07:54:24;;;;;;;;;;;21.50;68.30;;;;;;5008134;28;92268;-46
2023/07/02 07:56:50;;;;;;;;;;;21.50;68.30;;;;;;5006844;28;92120;-43
2023/07/02 07:59:15;;;;;;;;;;;21.40;68.30;;;;;;5009335;28;92458;-44
2023/07/02 08:01:41;;;;;;;;;;;21.50;68.30;;;;;;5004712;28;93221;-45
2023/07/02 08:04:06;;;;;;;;;;;21.50;68.30;;;;;;5009822;28;92209;-44
2023/07/02 08:06:32;;;;;;;;;;;21.50;68.40;;;;;;5006240;28;93657;-43
2023/07/02 08:08:57;;;;;;;;;;;21.40;68.30;;;;;;5002682;28;92513;-45
2023/07/02 08:11:23;;;;;;;;;;;21.40;68.40;;;;;;5012293;28;92197;-43
2023/07/02 08:13:48;;;;;;;;;;;21.40;68.50;;;;;;5012935;28;93810;-43
2023/07/02 08:16:14;;;;;;;;;;;21.40;68.50;;;;;;5011871;28;93167;-43
2023/07/02 08:18:39;;;;;;;;;;;21.40;68.60;;;;;;5010950;28;93451;-44
2023/07/02 08:21:06;;;;;;;;;;;21.40;68.60;;;;;;5011996;28;94467;-44
2023/07/02 08:23:32;;;;;;;;;;;21.40;68.70;;;;;;5011079;28;92678;-44
2023/07/02 08:25:57;;;;;;;;;;;21.40;68.70;;;;;;5012240;28;93162;-44
2023/07/02 08:28:23;;;;;;;;;;;21.40;68.80;;;;;;5010793;28;93043;-43
2023/07/02 08:30:48;;;;;;;;;;;21.40;69.30;;;;;;5010248;28;92577;-44
2023/07/02 08:33:14;;;;;;;;;;;21.40;68.70;;;;;;5011989;28;92581;-44
2023/07/02 08:35:39;;;;;;;;;;;21.40;68.70;;;;;;5013603;28;94414;-43
2023/07/02 08:38:05;;;;;;;;;;;21.40;68.80;;;;;;5008823;28;93994;-46
2023/07/02 08:40:30;;;;;;;;;;;21.40;68.80;;;;;;5010170;28;93488;-44
2023/07/02 08:42:56;;;;;;;;;;;21.40;68.70;;;;;;5010446;28;92584;-44
2023/07/02 08:45:23;;;;;;;;;;;21.40;68.60;;;;;;5009300;28;92481;-43
2023/07/02 08:47:50;;;;;;;;;;;21.40;68.60;;;;;;5011414;28;92984;-44
2023/07/02 08:50:16;;;;;;;;;;;21.40;68.60;;;;;;5009148;28;92323;-43
2023/07/02 08:52:44;;;;;;;;;;;21.40;68.70;;;;;;5012680;28;92406;-44
2023/07/02 08:55:10;;;;;;;;;;;21.40;68.70;;;;;;5009510;28;92862;-44
2023/07/02 08:57:36;;;;;;;;;;;21.40;68.80;;;;;;5016106;28;91498;-44
2023/07/02 09:00:10;;;;;;;;;;;21.40;68.80;;;;;;5008869;28;92823;-44
2023/07/02 09:02:36;;;;;;;;;;;21.40;68.90;;;;;;5008425;28;92158;-45
2023/07/02 09:05:02;;;;;;;;;;;21.40;68.80;;;;;;5011132;28;93297;-44
2023/07/02 09:07:27;;;;;;;;;;;21.40;68.80;;;;;;5009336;28;92569;-45
2023/07/02 09:09:53;;;;;;;;;;;21.40;68.80;;;;;;5012147;28;92677;-43
2023/07/02 09:12:26;;;;;;;;;;;21.40;68.80;;;;;;5009247;28;93908;-43
2023/07/02 09:14:58;;;;;;;;;;;21.50;68.80;;;;;;5010486;28;92284;-43
2023/07/02 09:17:27;;;;;;;;;;;21.50;68.70;;;;;;5008170;28;92115;-46
2023/07/02 09:19:53;;;;;;;;;;;21.50;68.80;;;;;;5013973;28;92380;-43
2023/07/02 09:22:18;;;;;;;;;;;21.50;68.70;;;;;;5009889;28;91317;-43
2023/07/02 09:24:51;;;;;;;;;;;21.50;68.70;;;;;;5011310;28;92017;-45
2023/07/02 09:27:16;;;;;;;;;;;21.50;68.70;;;;;;5009707;28;93255;-45
2023/07/02 09:29:42;;;;;;;;;;;21.60;68.70;;;;;;5009208;28;93076;-43
2023/07/02 09:32:07;;;;;;;;;;;21.50;68.60;;;;;;5004150;28;93172;-43
2023/07/02 09:34:33;;;;;;;;;;;21.50;68.70;;;;;;5009862;28;92939;-43
2023/07/02 09:36:59;;;;;;;;;;;21.60;68.60;;;;;;5010517;28;92137;-45
2023/07/02 09:39:32;;;;;;;;;;;21.60;68.70;;;;;;5013279;28;92364;-43
2023/07/02 09:42:02;;;;;;;;;;;21.60;68.70;;;;;;5010994;28;92150;-43
2023/07/02 09:44:29;;;;;;;;;;;21.60;68.60;;;;;;5009337;28;93939;-45
2023/07/02 09:47:02;;;;;;;;;;;21.60;68.70;;;;;;5010094;28;93804;-45
2023/07/02 09:49:31;;;;;;;;;;;21.60;68.70;;;;;;5004406;28;92073;-44
2023/07/02 09:51:58;;;;;;;;;;;21.60;68.70;;;;;;5004526;28;92625;-46
2023/07/02 09:54:24;;;;;;;;;;;21.60;68.90;;;;;;5003442;28;95519;-48
2023/07/02 09:56:49;;;;;;;;;;;21.60;68.80;;;;;;5012434;28;92118;-46
2023/07/02 09:59:15;;;;;;;;;;;21.60;68.80;;;;;;5008550;28;94093;-45
2023/07/02 10:01:40;;;;;;;;;;;21.60;68.70;;;;;;5011775;28;93114;-44
2023/07/02 10:04:15;;;;;;;;;;;21.60;68.80;;;;;;5008316;28;92627;-43
2023/07/02 10:07:00;;;;;;;;;;;21.70;68.90;;;;;;5004381;28;93115;-44
2023/07/02 10:09:36;;;;;;;;;;;21.60;68.80;;;;;;5009328;28;92057;-44
2023/07/02 10:12:01;;;;;;;;;;;21.60;68.70;;;;;;5005015;28;92421;-45
2023/07/02 10:14:27;;;;;;;;;;;21.60;68.70;;;;;;5011246;28;92748;-43
2023/07/02 10:16:53;;;;;;;;;;;21.60;68.80;;;;;;5007814;28;92225;-46
2023/07/02 10:19:19;;;;;;;;;;;21.70;68.80;;;;;;5010883;28;93973;-44
2023/07/02 10:21:50;;;;;;;;;;;21.70;68.80;;;;;;5008083;28;94429;-44
2023/07/02 10:24:16;;;;;;;;;;;21.70;68.80;;;;;;5014835;28;92010;-44
2023/07/02 10:26:54;;;;;;;;;;;21.70;69.40;;;;;;5007845;28;92198;-47
2023/07/02 10:29:20;;;;;;;;;;;21.70;68.70;;;;;;5006444;28;92162;-44
2023/07/02 10:31:49;;;;;;;;;;;21.70;68.80;;;;;;5009988;28;92842;-46
2023/07/02 10:34:15;;;;;;;;;;;21.70;68.90;;;;;;5007568;28;94360;-45
2023/07/02 10:36:40;;;;;;;;;;;21.70;68.80;;;;;;5011110;28;91395;-45
2023/07/02 10:39:06;;;;;;;;;;;21.80;68.80;;;;;;5008805;28;92094;-45
2023/07/02 10:41:32;;;;;;;;;;;21.80;68.80;;;;;;5010029;28;93120;-46
2023/07/02 10:44:09;;;;;;;;;;;21.80;68.80;;;;;;5007528;28;93105;-48
2023/07/02 10:46:42;;;;;;;;;;;21.80;68.80;;;;;;5009440;28;93429;-47
2023/07/02 10:49:09;;;;;;;;;;;21.80;69.00;;;;;;5008707;28;92047;-46
2023/07/02 10:51:34;;;;;;;;;;;21.80;69.10;;;;;;5009914;28;93734;-45
2023/07/02 10:54:00;;;;;;;;;;;21.80;69.00;;;;;;5008637;28;93108;-45
2023/07/02 10:56:27;;;;;;;;;;;21.70;69.10;;;;;;5009321;28;92172;-46
2023/07/02 10:58:53;;;;;;;;;;;21.80;69.20;;;;;;5008865;28;94240;-45
2023/07/02 11:01:29;;;;;;;;;;;21.80;69.10;;;;;;5006469;28;93926;-48
2023/07/02 11:03:59;;;;;;;;;;;21.80;69.10;;;;;;5009731;28;92296;-46
2023/07/02 11:06:25;;;;;;;;;;;21.80;69.10;;;;;;5006341;28;92460;-49
2023/07/02 11:08:51;;;;;;;;;;;21.80;69.10;;;;;;5012094;28;95547;-45
2023/07/02 11:11:16;;;;;;;;;;;21.80;69.10;;;;;;5008196;28;93448;-47
2023/07/02 11:13:46;;;;;;;;;;;21.80;69.10;;;;;;5009272;28;94482;-48
2023/07/02 11:16:29;;;;;;;;;;;21.90;69.20;;;;;;5007029;28;92187;-49
2023/07/02 11:19:07;;;;;;;;;;;21.90;69.10;;;;;;5007994;28;92449;-47
2023/07/02 11:21:32;;;;;;;;;;;21.90;69.10;;;;;;5007406;28;93317;-44
2023/07/02 11:24:05;;;;;;;;;;;22.00;69.10;;;;;;5010141;28;92100;-44
2023/07/02 11:26:37;;;;;;;;;;;22.00;69.10;;;;;;5007714;28;91733;-43
2023/07/02 11:29:03;;;;;;;;;;;22.00;69.10;;;;;;5003423;28;93522;-44
2023/07/02 11:31:28;;;;;;;;;;;22.00;69.10;;;;;;5013626;28;92056;-44
2023/07/02 11:33:54;;;;;;;;;;;22.00;69.20;;;;;;5004648;28;95050;-43
2023/07/02 11:36:20;;;;;;;;;;;22.00;69.30;;;;;;5010455;28;92237;-43
2023/07/02 11:38:46;;;;;;;;;;;22.00;69.30;;;;;;5006885;28;94192;-44
2023/07/02 11:41:12;;;;;;;;;;;22.00;69.30;;;;;;5009144;28;93267;-44
2023/07/02 11:43:38;;;;;;;;;;;22.00;69.40;;;;;;5007502;28;92191;-44
2023/07/02 11:46:04;;;;;;;;;;;22.00;69.40;;;;;;5008708;28;92385;-44
2023/07/02 11:48:29;;;;;;;;;;;22.00;69.50;;;;;;5003472;28;93245;-44
2023/07/02 11:50:55;;;;;;;;;;;22.00;69.50;;;;;;5010297;28;91804;-44
2023/07/02 11:53:20;;;;;;;;;;;22.00;69.40;;;;;;5007054;28;94488;-46
2023/07/02 11:55:46;;;;;;;;;;;22.00;69.40;;;;;;5006906;28;92090;-44
2023/07/02 11:58:11;;;;;;;;;;;22.00;69.40;;;;;;5006583;28;92999;-44
2023/07/02 12:00:37;;;;;;;;;;;22.00;69.40;;;;;;5006751;28;93101;-45
2023/07/02 12:03:02;;;;;;;;;;;22.00;69.30;;;;;;5004277;28;92311;-44
2023/07/02 12:05:28;;;;;;;;;;;22.10;69.30;;;;;;5006013;28;92560;-44
2023/07/02 12:07:53;;;;;;;;;;;22.10;69.30;;;;;;5006611;28;93078;-44
2023/07/02 12:10:19;;;;;;;;;;;22.10;69.40;;;;;;5005955;28;92196;-43
2023/07/02 12:12:44;;;;;;;;;;;22.10;69.30;;;;;;5011188;28;92877;-43
2023/07/02 12:15:10;;;;;;;;;;;22.10;69.30;;;;;;5007532;28;91704;-43
2023/07/02 12:17:35;;;;;;;;;;;22.10;69.40;;;;;;5004352;28;92405;-45
2023/07/02 12:20:01;;;;;;;;;;;22.20;69.40;;;;;;5006021;28;94666;-43
2023/07/02 12:22:27;;;;;;;;;;;22.20;69.40;;;;;;5003897;28;93617;-43
2023/07/02 12:24:55;;;;;;;;;;;22.20;69.40;;;;;;5001279;28;93369;-45
2023/07/02 12:27:21;;;;;;;;;;;22.20;69.30;;;;;;5000564;28;93180;-45
2023/07/02 12:29:48;;;;;;;;;;;22.20;69.40;;;;;;5001125;28;92222;-43
2023/07/02 12:32:14;;;;;;;;;;;22.20;69.40;;;;;;5001417;28;94105;-46
2023/07/02 12:34:39;;;;;;;;;;;22.20;69.40;;;;;;5012184;28;93305;-44
2023/07/02 12:37:05;;;;;;;;;;;22.30;69.40;;;;;;5006879;28;92576;-45
2023/07/02 12:39:31;;;;;;;;;;;22.30;69.30;;;;;;5009413;28;92281;-43
2023/07/02 12:41:56;;;;;;;;;;;22.30;69.30;;;;;;5006550;28;92496;-44
2023/07/02 12:44:22;;;;;;;;;;;22.30;69.30;;;;;;5008852;28;92564;-44
2023/07/02 12:46:47;;;;;;;;;;;22.30;69.20;;;;;;5006598;28;94211;-45
2023/07/02 12:49:13;;;;;;;;;;;22.40;69.20;;;;;;5006844;28;92160;-46
2023/07/02 12:51:38;;;;;;;;;;;22.40;69.20;;;;;;5008357;28;92413;-44
2023/07/02 12:54:05;;;;;;;;;;;22.40;69.30;;;;;;5007001;28;93905;-45
2023/07/02 12:56:31;;;;;;;;;;;22.40;69.30;;;;;;5011236;28;92100;-44
2023/07/02 12:58:56;;;;;;;;;;;22.40;69.30;;;;;;5010951;28;92867;-44
2023/07/02 13:01:23;;;;;;;;;;;22.50;69.30;;;;;;5010910;28;92135;-45
2023/07/02 13:03:49;;;;;;;;;;;22.50;69.30;;;;;;5009462;28;94020;-44
2023/07/02 13:06:14;;;;;;;;;;;22.50;69.30;;;;;;5009702;28;94628;-43
2023/07/02 13:08:40;;;;;;;;;;;22.50;69.40;;;;;;5009058;28;92658;-43
2023/07/02 13:11:05;;;;;;;;;;;22.50;69.40;;;;;;5010367;28;93114;-46
2023/07/02 13:13:31;;;;;;;;;;;22.50;69.50;;;;;;5009038;28;93142;-44
2023/07/02 13:15:57;;;;;;;;;;;22.50;69.50;;;;;;5012409;28;92145;-43
2023/07/02 13:18:23;;;;;;;;;;;22.50;69.40;;;;;;5010249;28;94260;-44
2023/07/02 13:20:48;;;;;;;;;;;22.50;69.50;;;;;;5007755;28;92033;-45
2023/07/02 13:23:14;;;;;;;;;;;22.60;69.50;;;;;;5011463;28;92456;-43
2023/07/02 13:25:39;;;;;;;;;;;22.50;69.50;;;;;;5007337;28;92423;-44
2023/07/02 13:28:05;;;;;;;;;;;22.60;69.60;;;;;;5011289;28;92372;-45
2023/07/02 13:30:31;;;;;;;;;;;22.50;69.60;;;;;;5007765;28;92167;-45
2023/07/02 13:32:56;;;;;;;;;;;22.50;69.60;;;;;;5006156;28;94508;-44
2023/07/02 13:35:22;;;;;;;;;;;22.50;69.60;;;;;;5006767;28;93687;-45
2023/07/02 13:37:48;;;;;;;;;;;22.60;69.50;;;;;;5012275;28;94899;-44
2023/07/02 13:40:15;;;;;;;;;;;22.60;69.40;;;;;;5008999;28;92144;-43
2023/07/02 13:42:41;;;;;;;;;;;22.70;69.30;;;;;;5010801;28;92416;-44
2023/07/02 13:45:08;;;;;;;;;;;22.70;69.20;;;;;;5008691;28;93543;-44
2023/07/02 13:47:34;;;;;;;;;;;22.70;69.20;;;;;;5009139;28;92162;-44
2023/07/02 13:49:59;;;;;;;;;;;22.70;69.20;;;;;;5007071;28;92573;-45
2023/07/02 13:52:25;;;;;;;;;;;22.60;69.10;;;;;;5008951;28;92281;-44
2023/07/02 13:54:51;;;;;;;;;;;22.60;69.20;;;;;;5008848;28;92637;-45
2023/07/02 13:57:16;;;;;;;;;;;22.60;69.10;;;;;;5008234;28;93751;-46
2023/07/02 13:59:42;;;;;;;;;;;22.60;69.20;;;;;;5011220;28;95476;-45
2023/07/02 14:02:08;;;;;;;;;;;22.70;69.30;;;;;;5008418;28;93365;-43
2023/07/02 14:04:33;;;;;;;;;;;22.70;69.20;;;;;;5005739;28;93937;-45
2023/07/02 14:06:59;;;;;;;;;;;22.60;69.10;;;;;;5010491;28;92146;-48
2023/07/02 14:09:24;;;;;;;;;;;22.70;69.20;;;;;;5007591;28;92440;-47
2023/07/02 14:11:50;;;;;;;;;;;22.70;69.10;;;;;;5010748;28;93087;-44